sensor_id;sensor_type;location;lat;lon;timestamp;pressure;altitude;pressure_sealevel;temperature;humidity
4392;BME280;2210;51.938;8.488;2023-01-26T00:03:28;101467.16;;;-1.29;100.00
4392;BME280;2210;51.938;8.488;2023-01-26T00:07:31;101455.47;;;-1.40;100.00
4392;BME280;2210;51.938;8.488;2023-01-26T00:11:35;101449.19;;;-1.40;100.00
4392;BME280;2210;51.938;8.488;2023-01-26T00:15:35;101452.19;;;-1.33;100.00
4392;BME280;2210;51.938;8.488;2023-01-26T00:19:39;101435.34;;;-1.47;100.00
4392;BME280;2210;51.938;8.488;2023-01-26T00:23:39;101434.09;;;-1.33;100.00
4392;BME280;2210;51.938;8.488;2023-01-26T00:27:40;101432.41;;;-1.34;100.00
4392;BME280;2210;51.938;8.488;2023-01-26T00:31:46;101422.28;;;-1.32;100.00
4392;BME280;2210;51.938;8.488;2023-01-26T00:35:53;101422.41;;;-1.43;100.00
4392;BME280;2210;51.938;8.488;2023-01-26T00:39:59;101415.13;;;-1.43;100.00
4392;BME280;2210;51.938;8.488;2023-01-26T00:44:00;101399.88;;;-1.54;100.00
4392;BME280;2210;51.938;8.488;2023-01-26T00:48:00;101394.75;;;-1.57;100.00
4392;BME280;2210;51.938;8.488;2023-01-26T00:52:01;101395.16;;;-1.61;100.00
4392;BME280;2210;51.938;8.488;2023-01-26T00:56:05;101398.03;;;-1.53;100.00
4392;BME280;2210;51.938;8.488;2023-01-26T01:00:06;101391.59;;;-1.52;100.00
4392;BME280;2210;51.938;8.488;2023-01-26T01:04:07;101391.34;;;-1.49;100.00
4392;BME280;2210;51.938;8.488;2023-01-26T01:08:08;101387.31;;;-1.64;100.00
4392;BME280;2210;51.938;8.488;2023-01-26T01:12:08;101379.34;;;-1.56;100.00
4392;BME280;2210;51.938;8.488;2023-01-26T01:16:13;101384.38;;;-1.51;100.00
4392;BME280;2210;51.938;8.488;2023-01-26T01:20:13;101373.41;;;-1.50;100.00
4392;BME280;2210;51.938;8.488;2023-01-26T01:24:13;101364.47;;;-1.50;100.00
4392;BME280;2210;51.938;8.488;2023-01-26T01:28:14;101366.44;;;-1.43;100.00
4392;BME280;2210;51.938;8.488;2023-01-26T01:32:14;101364.88;;;-1.45;100.00
4392;BME280;2210;51.938;8.488;2023-01-26T01:36:15;101357.78;;;-1.37;100.00
4392;BME280;2210;51.938;8.488;2023-01-26T01:40:16;101360.03;;;-1.51;100.00
4392;BME280;2210;51.938;8.488;2023-01-26T01:44:21;101370.50;;;-1.68;100.00
4392;BME280;2210;51.938;8.488;2023-01-26T01:53:05;101357.06;;;-1.39;100.00
4392;BME280;2210;51.938;8.488;2023-01-26T01:57:12;101353.59;;;-1.60;100.00
4392;BME280;2210;51.938;8.488;2023-01-26T02:01:17;101356.91;;;-1.47;100.00
4392;BME280;2210;51.938;8.488;2023-01-26T02:05:26;101350.22;;;-1.33;100.00
4392;BME280;2210;51.938;8.488;2023-01-26T02:09:34;101333.00;;;-1.32;100.00
4392;BME280;2210;51.938;8.488;2023-01-26T02:13:57;101338.97;;;-1.48;100.00
4392;BME280;2210;51.938;8.488;2023-01-26T02:18:00;101334.13;;;-1.44;100.00
4392;BME280;2210;51.938;8.488;2023-01-26T02:22:17;101329.16;;;-1.39;100.00
4392;BME280;2210;51.938;8.488;2023-01-26T02:26:24;101335.41;;;-1.48;100.00
4392;BME280;2210;51.938;8.488;2023-01-26T02:30:27;101330.97;;;-1.49;100.00
4392;BME280;2210;51.938;8.488;2023-01-26T02:34:31;101333.88;;;-1.31;100.00
4392;BME280;2210;51.938;8.488;2023-01-26T02:38:54;101332.03;;;-1.31;100.00
4392;BME280;2210;51.938;8.488;2023-01-26T02:43:00;101331.47;;;-1.25;100.00
4392;BME280;2210;51.938;8.488;2023-01-26T02:47:16;101321.94;;;-1.29;100.00
4392;BME280;2210;51.938;8.488;2023-01-26T02:51:17;101323.78;;;-1.29;100.00
4392;BME280;2210;51.938;8.488;2023-01-26T02:55:17;101329.31;;;-1.41;100.00
4392;BME280;2210;51.938;8.488;2023-01-26T02:59:24;101321.75;;;-1.47;100.00
4392;BME280;2210;51.938;8.488;2023-01-26T03:03:30;101313.63;;;-1.47;100.00
4392;BME280;2210;51.938;8.488;2023-01-26T03:07:44;101319.94;;;-1.37;100.00
4392;BME280;2210;51.938;8.488;2023-01-26T03:11:44;101313.69;;;-1.27;100.00
4392;BME280;2210;51.938;8.488;2023-01-26T03:15:44;101319.94;;;-1.27;100.00
4392;BME280;2210;51.938;8.488;2023-01-26T03:20:09;101318.50;;;-1.21;100.00
4392;BME280;2210;51.938;8.488;2023-01-26T03:24:34;101315.66;;;-1.29;100.00
4392;BME280;2210;51.938;8.488;2023-01-26T03:28:53;101324.59;;;-1.39;100.00
4392;BME280;2210;51.938;8.488;2023-01-26T03:32:56;101323.38;;;-1.25;100.00
4392;BME280;2210;51.938;8.488;2023-01-26T03:36:56;101325.03;;;-1.33;100.00
4392;BME280;2210;51.938;8.488;2023-01-26T03:40:57;101312.50;;;-1.34;100.00
4392;BME280;2210;51.938;8.488;2023-01-26T03:45:16;101307.53;;;-1.29;100.00
4392;BME280;2210;51.938;8.488;2023-01-26T03:49:38;101310.69;;;-1.24;100.00
4392;BME280;2210;51.938;8.488;2023-01-26T03:53:56;101304.25;;;-1.33;100.00
4392;BME280;2210;51.938;8.488;2023-01-26T03:58:15;101302.56;;;-1.24;100.00
4392;BME280;2210;51.938;8.488;2023-01-26T04:02:16;101298.28;;;-1.27;100.00
4392;BME280;2210;51.938;8.488;2023-01-26T04:06:36;101296.56;;;-1.28;100.00
4392;BME280;2210;51.938;8.488;2023-01-26T04:10:58;101294.00;;;-1.29;100.00
4392;BME280;2210;51.938;8.488;2023-01-26T04:14:58;101291.59;;;-1.23;100.00
4392;BME280;2210;51.938;8.488;2023-01-26T04:19:17;101307.97;;;-1.44;100.00
4392;BME280;2210;51.938;8.488;2023-01-26T04:23:39;101301.09;;;-1.48;100.00
4392;BME280;2210;51.938;8.488;2023-01-26T04:27:40;101301.97;;;-1.28;100.00
4392;BME280;2210;51.938;8.488;2023-01-26T04:31:43;101293.16;;;-1.20;100.00
4392;BME280;2210;51.938;8.488;2023-01-26T04:35:44;101288.88;;;-1.42;100.00
4392;BME280;2210;51.938;8.488;2023-01-26T04:39:44;101293.03;;;-1.28;100.00
4392;BME280;2210;51.938;8.488;2023-01-26T04:43:44;101285.06;;;-1.20;100.00
4392;BME280;2210;51.938;8.488;2023-01-26T04:47:44;101282.34;;;-1.20;100.00
4392;BME280;2210;51.938;8.488;2023-01-26T04:51:45;101277.38;;;-1.15;100.00
4392;BME280;2210;51.938;8.488;2023-01-26T04:55:45;101273.38;;;-1.11;100.00
4392;BME280;2210;51.938;8.488;2023-01-26T04:59:45;101273.78;;;-1.15;100.00
4392;BME280;2210;51.938;8.488;2023-01-26T05:03:46;101277.78;;;-1.20;100.00
4392;BME280;2210;51.938;8.488;2023-01-26T05:07:46;101280.50;;;-1.10;100.00
4392;BME280;2210;51.938;8.488;2023-01-26T05:11:49;101275.66;;;-1.16;100.00
4392;BME280;2210;51.938;8.488;2023-01-26T05:15:49;101273.78;;;-1.25;100.00
4392;BME280;2210;51.938;8.488;2023-01-26T05:19:50;101272.06;;;-1.26;100.00
4392;BME280;2210;51.938;8.488;2023-01-26T05:23:50;101275.38;;;-1.23;100.00
4392;BME280;2210;51.938;8.488;2023-01-26T05:27:50;101280.91;;;-1.34;100.00
4392;BME280;2210;51.938;8.488;2023-01-26T05:31:54;101276.50;;;-1.45;100.00
4392;BME280;2210;51.938;8.488;2023-01-26T05:35:55;101285.19;;;-1.31;100.00
4392;BME280;2210;51.938;8.488;2023-01-26T05:39:55;101283.63;;;-1.34;100.00
4392;BME280;2210;51.938;8.488;2023-01-26T05:43:56;101290.16;;;-1.37;100.00
4392;BME280;2210;51.938;8.488;2023-01-26T05:47:56;101293.41;;;-1.43;100.00
4392;BME280;2210;51.938;8.488;2023-01-26T05:51:59;101282.34;;;-1.20;100.00
4392;BME280;2210;51.938;8.488;2023-01-26T05:55:59;101277.38;;;-1.05;100.00
4392;BME280;2210;51.938;8.488;2023-01-26T06:00:00;101278.91;;;-1.22;100.00
4392;BME280;2210;51.938;8.488;2023-01-26T06:04:00;101280.06;;;-1.15;100.00
4392;BME280;2210;51.938;8.488;2023-01-26T06:08:04;101279.63;;;-1.10;100.00
4392;BME280;2210;51.938;8.488;2023-01-26T06:12:05;101281.34;;;-1.09;100.00
4392;BME280;2210;51.938;8.488;2023-01-26T06:16:08;101274.66;;;-1.15;100.00
4392;BME280;2210;51.938;8.488;2023-01-26T06:20:09;101284.06;;;-1.09;100.00
4392;BME280;2210;51.938;8.488;2023-01-26T06:24:11;101290.06;;;-1.06;100.00
4392;BME280;2210;51.938;8.488;2023-01-26T06:28:11;101285.50;;;-1.15;100.00
4392;BME280;2210;51.938;8.488;2023-01-26T06:32:12;101284.75;;;-1.07;100.00
4392;BME280;2210;51.938;8.488;2023-01-26T06:36:13;101289.47;;;-0.99;100.00
4392;BME280;2210;51.938;8.488;2023-01-26T06:40:20;101283.06;;;-0.98;100.00
4392;BME280;2210;51.938;8.488;2023-01-26T06:44:20;101289.63;;;-1.01;100.00
4392;BME280;2210;51.938;8.488;2023-01-26T06:48:20;101297.72;;;-1.01;100.00
4392;BME280;2210;51.938;8.488;2023-01-26T06:52:26;101298.44;;;-1.09;100.00
4392;BME280;2210;51.938;8.488;2023-01-26T06:56:29;101304.41;;;-0.95;100.00
4392;BME280;2210;51.938;8.488;2023-01-26T07:00:31;101288.31;;;-0.97;100.00
4392;BME280;2210;51.938;8.488;2023-01-26T07:04:31;101287.19;;;-0.94;100.00
4392;BME280;2210;51.938;8.488;2023-01-26T07:08:31;101287.91;;;-0.92;100.00
4392;BME280;2210;51.938;8.488;2023-01-26T07:12:39;101286.91;;;-0.91;100.00
4392;BME280;2210;51.938;8.488;2023-01-26T07:16:40;101282.22;;;-0.89;100.00
4392;BME280;2210;51.938;8.488;2023-01-26T07:20:41;101285.75;;;-0.89;100.00
4392;BME280;2210;51.938;8.488;2023-01-26T07:24:41;101289.47;;;-0.80;100.00
4392;BME280;2210;51.938;8.488;2023-01-26T07:28:41;101284.03;;;-0.90;100.00
4392;BME280;2210;51.938;8.488;2023-01-26T07:32:41;101288.31;;;-0.87;100.00
4392;BME280;2210;51.938;8.488;2023-01-26T07:36:41;101292.88;;;-0.78;100.00
4392;BME280;2210;51.938;8.488;2023-01-26T07:40:42;101295.16;;;-0.83;100.00
4392;BME280;2210;51.938;8.488;2023-01-26T07:44:42;101289.75;;;-0.83;100.00
4392;BME280;2210;51.938;8.488;2023-01-26T07:48:42;101292.19;;;-0.80;100.00
4392;BME280;2210;51.938;8.488;2023-01-26T07:52:43;101305.59;;;-0.88;100.00
4392;BME280;2210;51.938;8.488;2023-01-26T07:56:43;101295.72;;;-0.79;100.00
4392;BME280;2210;51.938;8.488;2023-01-26T08:00:50;101288.19;;;-0.76;100.00
4392;BME280;2210;51.938;8.488;2023-01-26T08:04:50;101287.16;;;-0.75;100.00
4392;BME280;2210;51.938;8.488;2023-01-26T08:08:51;101293.88;;;-0.69;100.00
4392;BME280;2210;51.938;8.488;2023-01-26T08:12:52;101299.41;;;-0.71;100.00
4392;BME280;2210;51.938;8.488;2023-01-26T08:16:53;101301.44;;;-0.73;100.00
4392;BME280;2210;51.938;8.488;2023-01-26T08:20:54;101297.72;;;-0.72;100.00
4392;BME280;2210;51.938;8.488;2023-01-26T08:24:57;101307.69;;;-0.72;100.00
4392;BME280;2210;51.938;8.488;2023-01-26T08:28:57;101306.41;;;-0.78;100.00
4392;BME280;2210;51.938;8.488;2023-01-26T08:33:00;101304.56;;;-0.68;100.00
4392;BME280;2210;51.938;8.488;2023-01-26T08:37:04;101302.00;;;-0.69;100.00
4392;BME280;2210;51.938;8.488;2023-01-26T08:41:04;101315.22;;;-0.56;100.00
4392;BME280;2210;51.938;8.488;2023-01-26T08:45:05;101308.25;;;-0.69;100.00
4392;BME280;2210;51.938;8.488;2023-01-26T08:49:05;101321.25;;;-0.62;100.00
4392;BME280;2210;51.938;8.488;2023-01-26T08:53:06;101312.09;;;-0.61;100.00
4392;BME280;2210;51.938;8.488;2023-01-26T08:57:06;101312.97;;;-0.61;100.00
4392;BME280;2210;51.938;8.488;2023-01-26T09:01:11;101318.53;;;-0.82;100.00
4392;BME280;2210;51.938;8.488;2023-01-26T09:05:12;101317.25;;;-0.78;100.00
4392;BME280;2210;51.938;8.488;2023-01-26T09:09:12;101322.50;;;-0.66;100.00
4392;BME280;2210;51.938;8.488;2023-01-26T09:13:13;101317.50;;;-0.61;100.00
4392;BME280;2210;51.938;8.488;2023-01-26T09:17:13;101318.22;;;-0.49;100.00
4392;BME280;2210;51.938;8.488;2023-01-26T09:21:13;101331.47;;;-0.56;100.00
4392;BME280;2210;51.938;8.488;2023-01-26T09:25:14;101330.78;;;-0.58;100.00
4392;BME280;2210;51.938;8.488;2023-01-26T09:29:15;101333.88;;;-0.53;100.00
4392;BME280;2210;51.938;8.488;2023-01-26T09:33:15;101333.16;;;-0.45;100.00
4392;BME280;2210;51.938;8.488;2023-01-26T09:37:16;101324.34;;;-0.47;100.00
4392;BME280;2210;51.938;8.488;2023-01-26T09:46:21;101322.31;;;-0.36;100.00
4392;BME280;2210;51.938;8.488;2023-01-26T09:50:40;101322.88;;;-0.32;100.00
4392;BME280;2210;51.938;8.488;2023-01-26T09:54:50;101323.16;;;-0.25;100.00
4392;BME280;2210;51.938;8.488;2023-01-26T09:59:03;101327.56;;;-0.24;100.00
4392;BME280;2210;51.938;8.488;2023-01-26T10:07:15;101320.19;;;-0.42;100.00
4392;BME280;2210;51.938;8.488;2023-01-26T10:11:20;101319.06;;;-0.49;100.00
4392;BME280;2210;51.938;8.488;2023-01-26T10:15:37;101316.63;;;-0.42;100.00
4392;BME280;2210;51.938;8.488;2023-01-26T10:19:41;101304.91;;;-0.33;100.00
4392;BME280;2210;51.938;8.488;2023-01-26T10:23:48;101302.47;;;-0.26;100.00
4392;BME280;2210;51.938;8.488;2023-01-26T10:27:51;101297.50;;;-0.41;100.00
4392;BME280;2210;51.938;8.488;2023-01-26T10:32:01;101302.22;;;-0.43;100.00
4392;BME280;2210;51.938;8.488;2023-01-26T10:36:03;101300.38;;;-0.32;100.00
4392;BME280;2210;51.938;8.488;2023-01-26T10:40:05;101297.94;;;-0.36;100.00
4392;BME280;2210;51.938;8.488;2023-01-26T10:48:19;101292.78;;;-0.29;100.00
4392;BME280;2210;51.938;8.488;2023-01-26T10:52:21;101291.91;;;-0.20;100.00
4392;BME280;2210;51.938;8.488;2023-01-26T10:56:22;101295.91;;;-0.24;100.00
4392;BME280;2210;51.938;8.488;2023-01-26T11:00:28;101294.50;;;-0.28;100.00
4392;BME280;2210;51.938;8.488;2023-01-26T11:04:29;101286.00;;;-0.15;100.00
4392;BME280;2210;51.938;8.488;2023-01-26T11:08:33;101281.06;;;-0.20;100.00
4392;BME280;2210;51.938;8.488;2023-01-26T11:12:33;101270.31;;;-0.11;100.00
4392;BME280;2210;51.938;8.488;2023-01-26T11:16:34;101265.63;;;-0.09;100.00
4392;BME280;2210;51.938;8.488;2023-01-26T11:25:17;101259.59;;;-0.03;100.00
4392;BME280;2210;51.938;8.488;2023-01-26T11:42:31;101248.63;;;-0.11;100.00
4392;BME280;2210;51.938;8.488;2023-01-26T11:50:44;101241.13;;;-0.27;100.00
4392;BME280;2210;51.938;8.488;2023-01-26T11:59:26;101230.53;;;-0.11;100.00
4392;BME280;2210;51.938;8.488;2023-01-26T12:03:49;101228.19;;;-0.06;100.00
4392;BME280;2210;51.938;8.488;2023-01-26T12:07:55;101223.81;;;-0.07;100.00
4392;BME280;2210;51.938;8.488;2023-01-26T12:12:08;101228.81;;;-0.12;100.00
4392;BME280;2210;51.938;8.488;2023-01-26T12:16:22;101224.97;;;-0.19;100.00
4392;BME280;2210;51.938;8.488;2023-01-26T12:20:45;101224.41;;;-0.13;100.00
4392;BME280;2210;51.938;8.488;2023-01-26T12:29:23;101205.84;;;-0.08;100.00
4392;BME280;2210;51.938;8.488;2023-01-26T12:33:25;101206.00;;;-0.19;100.00
4392;BME280;2210;51.938;8.488;2023-01-26T12:37:58;101196.88;;;-0.18;100.00
4392;BME280;2210;51.938;8.488;2023-01-26T12:42:15;101193.88;;;-0.15;100.00
4392;BME280;2210;51.938;8.488;2023-01-26T12:46:17;101194.03;;;-0.17;100.00
4392;BME280;2210;51.938;8.488;2023-01-26T12:50:38;101195.97;;;-0.09;100.00
4392;BME280;2210;51.938;8.488;2023-01-26T12:54:46;101194.00;;;-0.07;100.00
4392;BME280;2210;51.938;8.488;2023-01-26T12:58:49;101190.91;;;0.06;100.00
4392;BME280;2210;51.938;8.488;2023-01-26T13:03:16;101185.78;;;0.03;100.00
4392;BME280;2210;51.938;8.488;2023-01-26T13:07:42;101187.38;;;-0.04;100.00
4392;BME280;2210;51.938;8.488;2023-01-26T13:11:58;101183.78;;;0.05;100.00
4392;BME280;2210;51.938;8.488;2023-01-26T13:20:41;101165.84;;;0.22;100.00
4392;BME280;2210;51.938;8.488;2023-01-26T13:24:47;101164.97;;;0.22;100.00
4392;BME280;2210;51.938;8.488;2023-01-26T13:33:35;101177.03;;;0.09;100.00
4392;BME280;2210;51.938;8.488;2023-01-26T13:41:44;101185.63;;;0.05;100.00
4392;BME280;2210;51.938;8.488;2023-01-26T13:45:55;101184.19;;;0.10;100.00
4392;BME280;2210;51.938;8.488;2023-01-26T13:49:57;101186.44;;;0.15;100.00
4392;BME280;2210;51.938;8.488;2023-01-26T13:54:02;101186.38;;;0.25;100.00
4392;BME280;2210;51.938;8.488;2023-01-26T13:58:14;101190.56;;;0.19;100.00
4392;BME280;2210;51.938;8.488;2023-01-26T14:02:47;101192.16;;;0.12;100.00
4392;BME280;2210;51.938;8.488;2023-01-26T14:10:52;101183.97;;;0.40;100.00
4392;BME280;2210;51.938;8.488;2023-01-26T14:14:56;101187.63;;;0.30;100.00
4392;BME280;2210;51.938;8.488;2023-01-26T14:23:16;101194.94;;;0.20;100.00
4392;BME280;2210;51.938;8.488;2023-01-26T14:27:44;101183.34;;;0.28;100.00
4392;BME280;2210;51.938;8.488;2023-01-26T14:31:46;101186.47;;;0.33;100.00
4392;BME280;2210;51.938;8.488;2023-01-26T14:35:59;101188.63;;;0.29;100.00
4392;BME280;2210;51.938;8.488;2023-01-26T14:40:48;101187.38;;;0.42;100.00
4392;BME280;2210;51.938;8.488;2023-01-26T14:44:55;101180.25;;;0.41;100.00
4392;BME280;2210;51.938;8.488;2023-01-26T14:49:07;101192.81;;;0.42;100.00
4392;BME280;2210;51.938;8.488;2023-01-26T14:53:18;101195.00;;;0.38;100.00
4392;BME280;2210;51.938;8.488;2023-01-26T14:57:29;101201.00;;;0.32;100.00
4392;BME280;2210;51.938;8.488;2023-01-26T15:01:30;101195.59;;;0.32;100.00
4392;BME280;2210;51.938;8.488;2023-01-26T15:05:37;101198.31;;;0.32;100.00
4392;BME280;2210;51.938;8.488;2023-01-26T15:09:37;101211.38;;;0.37;100.00
4392;BME280;2210;51.938;8.488;2023-01-26T15:14:03;101212.03;;;0.30;100.00
4392;BME280;2210;51.938;8.488;2023-01-26T15:18:31;101203.41;;;0.35;100.00
4392;BME280;2210;51.938;8.488;2023-01-26T15:22:51;101206.28;;;0.33;100.00
4392;BME280;2210;51.938;8.488;2023-01-26T15:26:51;101204.97;;;0.38;100.00
4392;BME280;2210;51.938;8.488;2023-01-26T15:30:55;101208.78;;;0.45;100.00
4392;BME280;2210;51.938;8.488;2023-01-26T15:35:25;101202.66;;;0.43;100.00
4392;BME280;2210;51.938;8.488;2023-01-26T15:39:33;101194.50;;;0.43;100.00
4392;BME280;2210;51.938;8.488;2023-01-26T15:43:38;101196.81;;;0.38;100.00
4392;BME280;2210;51.938;8.488;2023-01-26T16:09:37;101188.63;;;0.65;100.00
4392;BME280;2210;51.938;8.488;2023-01-26T16:13:40;101186.13;;;0.54;100.00
4392;BME280;2210;51.938;8.488;2023-01-26T16:17:44;101195.31;;;0.53;100.00
4392;BME280;2210;51.938;8.488;2023-01-26T16:21:44;101185.91;;;0.47;100.00
4392;BME280;2210;51.938;8.488;2023-01-26T16:25:45;101185.13;;;0.55;100.00
4392;BME280;2210;51.938;8.488;2023-01-26T16:29:45;101183.91;;;0.49;100.00
4392;BME280;2210;51.938;8.488;2023-01-26T16:33:49;101180.41;;;0.57;100.00
4392;BME280;2210;51.938;8.488;2023-01-26T16:37:50;101186.44;;;0.51;100.00
4392;BME280;2210;51.938;8.488;2023-01-26T16:41:50;101198.78;;;0.45;100.00
4392;BME280;2210;51.938;8.488;2023-01-26T16:45:51;101209.88;;;0.52;100.00
4392;BME280;2210;51.938;8.488;2023-01-26T16:49:51;101202.13;;;0.57;100.00
4392;BME280;2210;51.938;8.488;2023-01-26T16:53:55;101200.09;;;0.59;100.00
4392;BME280;2210;51.938;8.488;2023-01-26T16:57:55;101197.84;;;0.55;100.00
4392;BME280;2210;51.938;8.488;2023-01-26T17:02:02;101204.84;;;0.57;100.00
4392;BME280;2210;51.938;8.488;2023-01-26T17:06:03;101206.69;;;0.57;100.00
4392;BME280;2210;51.938;8.488;2023-01-26T17:10:03;101201.31;;;0.65;100.00
4392;BME280;2210;51.938;8.488;2023-01-26T17:14:04;101203.53;;;0.61;100.00
4392;BME280;2210;51.938;8.488;2023-01-26T17:18:04;101206.91;;;0.63;100.00
4392;BME280;2210;51.938;8.488;2023-01-26T17:22:05;101213.34;;;0.62;100.00
4392;BME280;2210;51.938;8.488;2023-01-26T17:26:13;101222.91;;;0.66;100.00
4392;BME280;2210;51.938;8.488;2023-01-26T17:30:17;101220.97;;;0.59;100.00
4392;BME280;2210;51.938;8.488;2023-01-26T17:34:17;101222.03;;;0.66;100.00
4392;BME280;2210;51.938;8.488;2023-01-26T17:38:19;101226.72;;;0.56;100.00
4392;BME280;2210;51.938;8.488;2023-01-26T17:42:19;101230.66;;;0.61;100.00
4392;BME280;2210;51.938;8.488;2023-01-26T17:46:20;101224.91;;;0.64;100.00
4392;BME280;2210;51.938;8.488;2023-01-26T17:50:23;101236.56;;;0.75;100.00
4392;BME280;2210;51.938;8.488;2023-01-26T17:54:26;101238.97;;;0.60;100.00
4392;BME280;2210;51.938;8.488;2023-01-26T17:58:26;101237.47;;;0.65;100.00
4392;BME280;2210;51.938;8.488;2023-01-26T18:02:27;101238.16;;;0.67;100.00
4392;BME280;2210;51.938;8.488;2023-01-26T18:06:28;101234.13;;;0.72;100.00
4392;BME280;2210;51.938;8.488;2023-01-26T18:10:31;101242.66;;;0.77;100.00
4392;BME280;2210;51.938;8.488;2023-01-26T18:14:35;101244.47;;;0.68;100.00
4392;BME280;2210;51.938;8.488;2023-01-26T18:18:35;101235.22;;;0.79;100.00
4392;BME280;2210;51.938;8.488;2023-01-26T18:22:36;101237.72;;;0.72;100.00
4392;BME280;2210;51.938;8.488;2023-01-26T18:26:36;101237.41;;;0.57;100.00
4392;BME280;2210;51.938;8.488;2023-01-26T18:30:37;101232.34;;;0.62;100.00
4392;BME280;2210;51.938;8.488;2023-01-26T18:34:38;101234.91;;;0.82;100.00
4392;BME280;2210;51.938;8.488;2023-01-26T18:38:43;101232.66;;;0.77;100.00
4392;BME280;2210;51.938;8.488;2023-01-26T18:42:46;101226.63;;;0.65;100.00
4392;BME280;2210;51.938;8.488;2023-01-26T18:46:53;101238.22;;;0.76;100.00
4392;BME280;2210;51.938;8.488;2023-01-26T18:51:17;101232.72;;;0.67;100.00
4392;BME280;2210;51.938;8.488;2023-01-26T18:55:21;101234.84;;;0.74;100.00
4392;BME280;2210;51.938;8.488;2023-01-26T18:59:24;101231.13;;;0.75;100.00
4392;BME280;2210;51.938;8.488;2023-01-26T19:03:33;101233.69;;;0.76;100.00
4392;BME280;2210;51.938;8.488;2023-01-26T19:07:42;101243.28;;;0.89;100.00
4392;BME280;2210;51.938;8.488;2023-01-26T19:11:46;101230.72;;;0.70;100.00
4392;BME280;2210;51.938;8.488;2023-01-26T19:15:49;101235.22;;;0.79;100.00
4392;BME280;2210;51.938;8.488;2023-01-26T19:19:49;101239.47;;;0.63;100.00
4392;BME280;2210;51.938;8.488;2023-01-26T19:23:51;101235.69;;;0.74;100.00
4392;BME280;2210;51.938;8.488;2023-01-26T19:27:52;101242.19;;;0.63;100.00
4392;BME280;2210;51.938;8.488;2023-01-26T19:31:52;101243.44;;;0.69;100.00
4392;BME280;2210;51.938;8.488;2023-01-26T19:35:53;101233.59;;;0.68;100.00
4392;BME280;2210;51.938;8.488;2023-01-26T19:40:00;101241.09;;;0.74;100.00
4392;BME280;2210;51.938;8.488;2023-01-26T19:44:00;101233.84;;;0.75;100.00
4392;BME280;2210;51.938;8.488;2023-01-26T19:48:00;101244.81;;;0.73;100.00
4392;BME280;2210;51.938;8.488;2023-01-26T19:52:13;101238.94;;;0.78;100.00
4392;BME280;2210;51.938;8.488;2023-01-26T19:56:27;101241.34;;;0.81;100.00
4392;BME280;2210;51.938;8.488;2023-01-26T20:00:27;101245.06;;;0.80;100.00
4392;BME280;2210;51.938;8.488;2023-01-26T20:04:28;101242.59;;;0.69;100.00
4392;BME280;2210;51.938;8.488;2023-01-26T20:08:28;101239.69;;;0.88;100.00
4392;BME280;2210;51.938;8.488;2023-01-26T20:12:29;101237.72;;;0.72;100.00
4392;BME280;2210;51.938;8.488;2023-01-26T20:16:32;101246.78;;;0.81;100.00
4392;BME280;2210;51.938;8.488;2023-01-26T20:20:33;101241.34;;;0.81;100.00
4392;BME280;2210;51.938;8.488;2023-01-26T20:24:33;101240.97;;;0.94;100.00
4392;BME280;2210;51.938;8.488;2023-01-26T20:28:42;101244.28;;;0.88;100.00
4392;BME280;2210;51.938;8.488;2023-01-26T20:32:51;101239.94;;;0.77;100.00
4392;BME280;2210;51.938;8.488;2023-01-26T20:36:51;101243.22;;;0.80;100.00
4392;BME280;2210;51.938;8.488;2023-01-26T20:40:56;101245.84;;;0.90;100.00
4392;BME280;2210;51.938;8.488;2023-01-26T20:45:03;101236.47;;;0.84;100.00
4392;BME280;2210;51.938;8.488;2023-01-26T20:49:05;101234.13;;;0.72;100.00
4392;BME280;2210;51.938;8.488;2023-01-26T20:53:07;101233.84;;;0.75;100.00
4392;BME280;2210;51.938;8.488;2023-01-26T20:57:14;101235.31;;;0.87;100.00
4392;BME280;2210;51.938;8.488;2023-01-26T21:01:15;101223.50;;;0.78;100.00
4392;BME280;2210;51.938;8.488;2023-01-26T21:05:16;101228.41;;;0.75;100.00
4392;BME280;2210;51.938;8.488;2023-01-26T21:09:19;101221.72;;;0.69;100.00
4392;BME280;2210;51.938;8.488;2023-01-26T21:13:20;101213.13;;;0.74;100.00
4392;BME280;2210;51.938;8.488;2023-01-26T21:17:33;101218.22;;;0.77;100.00
4392;BME280;2210;51.938;8.488;2023-01-26T21:21:33;101219.00;;;0.69;100.00
4392;BME280;2210;51.938;8.488;2023-01-26T21:25:33;101213.72;;;0.67;100.00
4392;BME280;2210;51.938;8.488;2023-01-26T21:34:07;101208.31;;;0.67;100.00
4392;BME280;2210;51.938;8.488;2023-01-26T21:38:08;101216.69;;;0.74;100.00
4392;BME280;2210;51.938;8.488;2023-01-26T21:42:17;101215.44;;;0.69;100.00
4392;BME280;2210;51.938;8.488;2023-01-26T21:46:17;101201.88;;;0.69;100.00
4392;BME280;2210;51.938;8.488;2023-01-26T21:50:17;101202.94;;;0.76;100.00
4392;BME280;2210;51.938;8.488;2023-01-26T21:54:38;101206.44;;;0.86;100.00
4392;BME280;2210;51.938;8.488;2023-01-26T21:58:38;101202.25;;;0.92;100.00
4392;BME280;2210;51.938;8.488;2023-01-26T22:02:55;101212.72;;;0.87;100.00
4392;BME280;2210;51.938;8.488;2023-01-26T22:07:04;101208.66;;;0.91;100.00
4392;BME280;2210;51.938;8.488;2023-01-26T22:11:14;101219.00;;;0.87;100.00
4392;BME280;2210;51.938;8.488;2023-01-26T22:15:17;101208.59;;;1.00;100.00
4392;BME280;2210;51.938;8.488;2023-01-26T22:19:17;101213.94;;;1.37;100.00
4392;BME280;2210;51.938;8.488;2023-01-26T22:23:34;101215.09;;;1.60;100.00
4392;BME280;2210;51.938;8.488;2023-01-26T22:27:38;101218.88;;;1.67;100.00
4392;BME280;2210;51.938;8.488;2023-01-26T22:31:41;101220.78;;;1.75;100.00
4392;BME280;2210;51.938;8.488;2023-01-26T22:35:41;101231.50;;;1.77;100.00
4392;BME280;2210;51.938;8.488;2023-01-26T22:39:42;101236.72;;;1.70;100.00
4392;BME280;2210;51.938;8.488;2023-01-26T22:43:42;101239.25;;;1.63;100.00
4392;BME280;2210;51.938;8.488;2023-01-26T22:47:42;101240.97;;;1.64;100.00
4392;BME280;2210;51.938;8.488;2023-01-26T22:51:42;101246.56;;;1.63;100.00
4392;BME280;2210;51.938;8.488;2023-01-26T22:55:43;101237.38;;;1.64;100.00
4392;BME280;2210;51.938;8.488;2023-01-26T22:59:43;101248.25;;;1.64;100.00
4392;BME280;2210;51.938;8.488;2023-01-26T23:03:43;101240.78;;;1.66;100.00
4392;BME280;2210;51.938;8.488;2023-01-26T23:07:47;101247.94;;;1.67;100.00
4392;BME280;2210;51.938;8.488;2023-01-26T23:11:48;101249.44;;;1.69;100.00
4392;BME280;2210;51.938;8.488;2023-01-26T23:15:48;101252.16;;;1.69;100.00
4392;BME280;2210;51.938;8.488;2023-01-26T23:19:48;101255.94;;;1.68;100.00
4392;BME280;2210;51.938;8.488;2023-01-26T23:23:48;101257.94;;;1.66;100.00